sensor_id;sensor_type;location;lat;lon;timestamp;pressure;altitude;pressure_sealevel;temperature;humidity
59106;BME280;44891;50.204;8.132;2023-04-27T00:02:59;98442.34;;;3.52;77.23
59106;BME280;44891;50.204;8.132;2023-04-27T00:07:05;98440.94;;;3.50;76.68
59106;BME280;44891;50.204;8.132;2023-04-27T00:11:06;98436.75;;;3.55;76.75
59106;BME280;44891;50.204;8.132;2023-04-27T00:15:09;98431.28;;;3.65;76.17
59106;BME280;44891;50.204;8.132;2023-04-27T00:19:12;98425.22;;;3.58;76.59
59106;BME280;44891;50.204;8.132;2023-04-27T00:23:14;98436.09;;;3.47;76.70
59106;BME280;44891;50.204;8.132;2023-04-27T00:27:16;98441.84;;;3.42;77.40
59106;BME280;44891;50.204;8.132;2023-04-27T00:31:18;98430.66;;;3.42;76.50
59106;BME280;44891;50.204;8.132;2023-04-27T00:35:22;98442.16;;;3.33;77.00
59106;BME280;44891;50.204;8.132;2023-04-27T00:39:24;98430.06;;;3.40;76.91
59106;BME280;44891;50.204;8.132;2023-04-27T00:43:25;98432.78;;;3.32;77.26
59106;BME280;44891;50.204;8.132;2023-04-27T00:47:28;98437.47;;;3.21;78.17
59106;BME280;44891;50.204;8.132;2023-04-27T00:51:32;98435.13;;;3.26;77.31
59106;BME280;44891;50.204;8.132;2023-04-27T00:55:33;98435.53;;;3.30;77.36
59106;BME280;44891;50.204;8.132;2023-04-27T00:59:36;98439.56;;;3.33;77.23
59106;BME280;44891;50.204;8.132;2023-04-27T01:03:38;98434.69;;;3.23;77.71
59106;BME280;44891;50.204;8.132;2023-04-27T01:07:41;98445.69;;;3.25;77.96
59106;BME280;44891;50.204;8.132;2023-04-27T01:11:43;98434.50;;;3.24;77.50
59106;BME280;44891;50.204;8.132;2023-04-27T01:15:45;98440.88;;;3.22;76.92
59106;BME280;44891;50.204;8.132;2023-04-27T01:19:47;98442.13;;;3.26;77.52
59106;BME280;44891;50.204;8.132;2023-04-27T01:23:52;98450.06;;;3.03;78.64
59106;BME280;44891;50.204;8.132;2023-04-27T01:27:54;98449.63;;;2.99;79.61
59106;BME280;44891;50.204;8.132;2023-04-27T01:31:56;98449.38;;;3.16;78.09
59106;BME280;44891;50.204;8.132;2023-04-27T01:35:57;98448.25;;;3.04;78.46
59106;BME280;44891;50.204;8.132;2023-04-27T01:40:04;98450.84;;;3.04;78.99
59106;BME280;44891;50.204;8.132;2023-04-27T01:44:06;98445.25;;;3.00;78.74
59106;BME280;44891;50.204;8.132;2023-04-27T01:48:08;98443.44;;;3.00;78.92
59106;BME280;44891;50.204;8.132;2023-04-27T01:52:11;98447.78;;;3.15;78.96
59106;BME280;44891;50.204;8.132;2023-04-27T01:56:14;98457.88;;;2.88;79.79
59106;BME280;44891;50.204;8.132;2023-04-27T02:00:16;98448.19;;;2.97;78.95
59106;BME280;44891;50.204;8.132;2023-04-27T02:04:21;98454.75;;;2.93;78.25
59106;BME280;44891;50.204;8.132;2023-04-27T02:08:23;98463.75;;;2.97;78.06
59106;BME280;44891;50.204;8.132;2023-04-27T02:12:26;98468.38;;;2.80;79.13
59106;BME280;44891;50.204;8.132;2023-04-27T02:16:28;98471.72;;;2.95;79.11
59106;BME280;44891;50.204;8.132;2023-04-27T02:20:30;98467.84;;;2.85;79.29
59106;BME280;44891;50.204;8.132;2023-04-27T02:24:34;98470.03;;;2.88;79.49
59106;BME280;44891;50.204;8.132;2023-04-27T02:28:37;98473.25;;;3.05;78.70
59106;BME280;44891;50.204;8.132;2023-04-27T02:32:39;98473.16;;;2.98;79.23
59106;BME280;44891;50.204;8.132;2023-04-27T02:36:41;98475.50;;;2.93;79.34
59106;BME280;44891;50.204;8.132;2023-04-27T02:40:43;98474.25;;;2.89;79.96
59106;BME280;44891;50.204;8.132;2023-04-27T02:44:46;98473.91;;;2.92;80.01
59106;BME280;44891;50.204;8.132;2023-04-27T02:48:48;98472.97;;;2.99;78.75
59106;BME280;44891;50.204;8.132;2023-04-27T02:52:50;98433.59;;;2.75;79.07
59106;BME280;44891;50.204;8.132;2023-04-27T02:56:52;98471.91;;;2.94;78.95
59106;BME280;44891;50.204;8.132;2023-04-27T03:00:55;98468.06;;;3.05;78.75
59106;BME280;44891;50.204;8.132;2023-04-27T03:04:57;98470.31;;;2.93;79.52
59106;BME280;44891;50.204;8.132;2023-04-27T03:08:58;98458.25;;;2.85;80.24
59106;BME280;44891;50.204;8.132;2023-04-27T03:13:01;98454.69;;;3.08;79.34
59106;BME280;44891;50.204;8.132;2023-04-27T03:17:04;98470.66;;;2.90;79.55
59106;BME280;44891;50.204;8.132;2023-04-27T03:21:07;98457.47;;;3.06;79.39
59106;BME280;44891;50.204;8.132;2023-04-27T03:25:09;98448.09;;;3.05;79.32
59106;BME280;44891;50.204;8.132;2023-04-27T03:29:12;98449.81;;;2.98;80.21
59106;BME280;44891;50.204;8.132;2023-04-27T03:33:15;98442.78;;;2.92;80.11
59106;BME280;44891;50.204;8.132;2023-04-27T03:37:18;98434.81;;;2.93;80.02
59106;BME280;44891;50.204;8.132;2023-04-27T03:41:20;98445.09;;;2.87;79.53
59106;BME280;44891;50.204;8.132;2023-04-27T03:45:22;98450.13;;;2.73;79.61
59106;BME280;44891;50.204;8.132;2023-04-27T03:49:26;98464.75;;;2.45;81.50
59106;BME280;44891;50.204;8.132;2023-04-27T03:53:28;98460.63;;;2.65;80.83
59106;BME280;44891;50.204;8.132;2023-04-27T03:57:31;98458.84;;;2.66;80.32
59106;BME280;44891;50.204;8.132;2023-04-27T04:01:33;98459.16;;;2.63;80.08
59106;BME280;44891;50.204;8.132;2023-04-27T04:05:37;98467.78;;;2.49;81.05
59106;BME280;44891;50.204;8.132;2023-04-27T04:09:39;98460.38;;;2.45;81.83
59106;BME280;44891;50.204;8.132;2023-04-27T04:13:42;98457.50;;;2.55;81.44
59106;BME280;44891;50.204;8.132;2023-04-27T04:17:44;98470.25;;;2.57;81.37
59106;BME280;44891;50.204;8.132;2023-04-27T04:21:48;98477.16;;;2.64;80.76
59106;BME280;44891;50.204;8.132;2023-04-27T04:25:50;98466.59;;;2.66;80.54
59106;BME280;44891;50.204;8.132;2023-04-27T04:29:53;98464.91;;;2.58;80.18
59106;BME280;44891;50.204;8.132;2023-04-27T04:33:56;98464.56;;;2.47;80.86
59106;BME280;44891;50.204;8.132;2023-04-27T04:37:59;98479.56;;;2.36;80.74
59106;BME280;44891;50.204;8.132;2023-04-27T04:42:01;98475.47;;;2.27;82.37
59106;BME280;44891;50.204;8.132;2023-04-27T04:46:04;98477.88;;;2.43;81.80
59106;BME280;44891;50.204;8.132;2023-04-27T04:50:07;98476.63;;;2.54;81.37
59106;BME280;44891;50.204;8.132;2023-04-27T04:54:11;98486.28;;;2.60;81.07
59106;BME280;44891;50.204;8.132;2023-04-27T04:58:13;98488.16;;;2.66;80.79
59106;BME280;44891;50.204;8.132;2023-04-27T05:02:16;98494.13;;;2.82;80.35
59106;BME280;44891;50.204;8.132;2023-04-27T05:06:17;98493.94;;;2.98;79.90
59106;BME280;44891;50.204;8.132;2023-04-27T05:10:21;98502.19;;;3.08;79.41
59106;BME280;44891;50.204;8.132;2023-04-27T05:14:22;98510.41;;;3.26;78.60
59106;BME280;44891;50.204;8.132;2023-04-27T05:18:25;98501.34;;;3.37;78.25
59106;BME280;44891;50.204;8.132;2023-04-27T05:22:27;98495.50;;;3.35;77.99
59106;BME280;44891;50.204;8.132;2023-04-27T05:26:30;98503.25;;;3.50;78.14
59106;BME280;44891;50.204;8.132;2023-04-27T05:30:31;98503.47;;;3.55;78.29
59106;BME280;44891;50.204;8.132;2023-04-27T05:34:33;98505.09;;;3.77;77.90
59106;BME280;44891;50.204;8.132;2023-04-27T05:38:35;98498.16;;;3.85;78.22
59106;BME280;44891;50.204;8.132;2023-04-27T05:42:41;98508.41;;;3.93;78.09
59106;BME280;44891;50.204;8.132;2023-04-27T05:46:42;98504.50;;;4.03;77.18
59106;BME280;44891;50.204;8.132;2023-04-27T05:50:44;98500.94;;;4.11;77.08
59106;BME280;44891;50.204;8.132;2023-04-27T05:54:48;98506.16;;;4.11;77.31
59106;BME280;44891;50.204;8.132;2023-04-27T05:58:54;98515.50;;;4.33;76.26
59106;BME280;44891;50.204;8.132;2023-04-27T06:02:56;98519.31;;;4.72;75.01
59106;BME280;44891;50.204;8.132;2023-04-27T06:06:57;98531.16;;;4.81;75.16
59106;BME280;44891;50.204;8.132;2023-04-27T06:10:59;98536.66;;;5.00;74.88
59106;BME280;44891;50.204;8.132;2023-04-27T06:15:03;98539.28;;;5.06;74.79
59106;BME280;44891;50.204;8.132;2023-04-27T06:19:08;98540.78;;;5.35;73.77
59106;BME280;44891;50.204;8.132;2023-04-27T06:23:09;98542.25;;;5.58;73.17
59106;BME280;44891;50.204;8.132;2023-04-27T06:27:11;98535.22;;;5.65;73.02
59106;BME280;44891;50.204;8.132;2023-04-27T06:31:15;98539.66;;;5.84;72.42
59106;BME280;44891;50.204;8.132;2023-04-27T06:35:16;98549.13;;;6.18;71.50
59106;BME280;44891;50.204;8.132;2023-04-27T06:39:18;98552.94;;;6.29;71.27
59106;BME280;44891;50.204;8.132;2023-04-27T06:43:20;98552.31;;;6.47;68.82
59106;BME280;44891;50.204;8.132;2023-04-27T06:47:24;98551.31;;;6.54;68.91
59106;BME280;44891;50.204;8.132;2023-04-27T06:51:25;98552.28;;;6.67;68.50
59106;BME280;44891;50.204;8.132;2023-04-27T06:55:27;98549.84;;;6.78;68.41
59106;BME280;44891;50.204;8.132;2023-04-27T06:59:29;98549.44;;;6.88;68.33
59106;BME280;44891;50.204;8.132;2023-04-27T07:03:34;98550.75;;;7.11;66.95
59106;BME280;44891;50.204;8.132;2023-04-27T07:07:36;98550.47;;;7.25;66.63
59106;BME280;44891;50.204;8.132;2023-04-27T07:11:38;98548.66;;;7.26;63.41
59106;BME280;44891;50.204;8.132;2023-04-27T07:15:40;98541.69;;;7.20;63.64
59106;BME280;44891;50.204;8.132;2023-04-27T07:19:43;98543.84;;;7.23;62.86
59106;BME280;44891;50.204;8.132;2023-04-27T07:23:45;98545.53;;;7.49;63.79
59106;BME280;44891;50.204;8.132;2023-04-27T07:27:46;98544.44;;;7.63;62.57
59106;BME280;44891;50.204;8.132;2023-04-27T07:31:48;98538.06;;;7.84;62.18
59106;BME280;44891;50.204;8.132;2023-04-27T07:35:53;98536.19;;;7.91;61.37
59106;BME280;44891;50.204;8.132;2023-04-27T07:39:56;98529.78;;;8.12;61.39
59106;BME280;44891;50.204;8.132;2023-04-27T07:43:59;98527.72;;;8.21;60.42
59106;BME280;44891;50.204;8.132;2023-04-27T07:48:00;98526.22;;;8.31;59.96
59106;BME280;44891;50.204;8.132;2023-04-27T07:52:05;98523.94;;;8.41;59.56
59106;BME280;44891;50.204;8.132;2023-04-27T07:56:07;98517.22;;;8.52;59.98
59106;BME280;44891;50.204;8.132;2023-04-27T08:00:11;98523.44;;;8.69;60.55
59106;BME280;44891;50.204;8.132;2023-04-27T08:04:15;98513.94;;;8.93;60.24
59106;BME280;44891;50.204;8.132;2023-04-27T08:08:19;98511.78;;;9.20;59.24
59106;BME280;44891;50.204;8.132;2023-04-27T08:12:22;98518.56;;;9.40;59.22
59106;BME280;44891;50.204;8.132;2023-04-27T08:16:24;98509.03;;;9.57;58.32
59106;BME280;44891;50.204;8.132;2023-04-27T08:20:26;98512.97;;;9.90;56.85
59106;BME280;44891;50.204;8.132;2023-04-27T08:24:29;98516.56;;;10.07;57.12
59106;BME280;44891;50.204;8.132;2023-04-27T08:28:31;98506.31;;;10.29;55.60
59106;BME280;44891;50.204;8.132;2023-04-27T08:32:33;98504.03;;;10.44;54.38
59106;BME280;44891;50.204;8.132;2023-04-27T08:36:34;98502.66;;;10.65;52.70
59106;BME280;44891;50.204;8.132;2023-04-27T08:40:42;98499.16;;;10.88;52.42
59106;BME280;44891;50.204;8.132;2023-04-27T08:44:43;98508.03;;;11.10;51.11
59106;BME280;44891;50.204;8.132;2023-04-27T08:48:45;98511.84;;;11.20;50.35
59106;BME280;44891;50.204;8.132;2023-04-27T08:52:47;98516.38;;;11.36;50.22
59106;BME280;44891;50.204;8.132;2023-04-27T08:56:51;98512.44;;;11.50;50.57
59106;BME280;44891;50.204;8.132;2023-04-27T09:00:53;98506.66;;;11.82;50.46
59106;BME280;44891;50.204;8.132;2023-04-27T09:04:54;98495.81;;;11.95;48.99
59106;BME280;44891;50.204;8.132;2023-04-27T09:08:56;98498.28;;;12.18;48.58
59106;BME280;44891;50.204;8.132;2023-04-27T09:13:00;98494.69;;;12.24;48.06
59106;BME280;44891;50.204;8.132;2023-04-27T09:17:01;98495.00;;;12.28;48.61
59106;BME280;44891;50.204;8.132;2023-04-27T09:21:03;98490.28;;;12.30;48.18
59106;BME280;44891;50.204;8.132;2023-04-27T09:25:06;98490.41;;;12.40;48.38
59106;BME280;44891;50.204;8.132;2023-04-27T09:29:10;98485.81;;;12.69;47.64
59106;BME280;44891;50.204;8.132;2023-04-27T09:33:12;98483.59;;;12.83;47.53
59106;BME280;44891;50.204;8.132;2023-04-27T09:37:14;98484.84;;;12.75;48.03
59106;BME280;44891;50.204;8.132;2023-04-27T09:41:16;98485.78;;;12.91;46.84
59106;BME280;44891;50.204;8.132;2023-04-27T09:45:19;98479.47;;;13.14;46.30
59106;BME280;44891;50.204;8.132;2023-04-27T09:49:21;98466.25;;;13.36;45.80
59106;BME280;44891;50.204;8.132;2023-04-27T09:53:25;98467.34;;;13.72;45.16
59106;BME280;44891;50.204;8.132;2023-04-27T09:57:30;98463.91;;;13.72;44.50
59106;BME280;44891;50.204;8.132;2023-04-27T10:01:39;98466.13;;;13.85;44.64
59106;BME280;44891;50.204;8.132;2023-04-27T10:05:50;98460.78;;;14.12;44.88
59106;BME280;44891;50.204;8.132;2023-04-27T10:10:02;98458.56;;;14.36;43.96
59106;BME280;44891;50.204;8.132;2023-04-27T10:14:05;98450.78;;;14.61;42.79
59106;BME280;44891;50.204;8.132;2023-04-27T10:18:09;98456.16;;;14.92;41.52
59106;BME280;44891;50.204;8.132;2023-04-27T10:22:10;98445.41;;;15.29;41.65
59106;BME280;44891;50.204;8.132;2023-04-27T10:26:20;98435.91;;;15.59;39.74
59106;BME280;44891;50.204;8.132;2023-04-27T10:30:23;98436.19;;;15.88;40.94
59106;BME280;44891;50.204;8.132;2023-04-27T10:34:26;98442.00;;;15.64;41.24
59106;BME280;44891;50.204;8.132;2023-04-27T10:38:28;98436.94;;;16.03;40.17
59106;BME280;44891;50.204;8.132;2023-04-27T10:42:31;98436.88;;;16.34;38.40
59106;BME280;44891;50.204;8.132;2023-04-27T10:46:33;98438.97;;;16.47;38.90
59106;BME280;44891;50.204;8.132;2023-04-27T10:50:37;98440.22;;;16.70;38.15
59106;BME280;44891;50.204;8.132;2023-04-27T10:54:43;98423.56;;;17.09;38.50
59106;BME280;44891;50.204;8.132;2023-04-27T10:58:45;98418.88;;;16.96;37.86
59106;BME280;44891;50.204;8.132;2023-04-27T11:02:47;98424.91;;;16.52;38.01
59106;BME280;44891;50.204;8.132;2023-04-27T11:06:50;98418.69;;;16.82;38.45
59106;BME280;44891;50.204;8.132;2023-04-27T11:10:54;98408.06;;;16.82;38.32
59106;BME280;44891;50.204;8.132;2023-04-27T11:14:56;98409.94;;;16.81;37.71
59106;BME280;44891;50.204;8.132;2023-04-27T11:19:02;98407.47;;;16.90;38.56
59106;BME280;44891;50.204;8.132;2023-04-27T11:23:06;98405.47;;;16.67;37.57
59106;BME280;44891;50.204;8.132;2023-04-27T11:27:07;98401.75;;;16.68;38.01
59106;BME280;44891;50.204;8.132;2023-04-27T11:31:09;98400.78;;;17.42;37.82
59106;BME280;44891;50.204;8.132;2023-04-27T11:35:12;98390.16;;;17.76;36.45
59106;BME280;44891;50.204;8.132;2023-04-27T11:39:18;98381.38;;;17.07;36.06
59106;BME280;44891;50.204;8.132;2023-04-27T11:43:24;98383.19;;;16.78;36.79
59106;BME280;44891;50.204;8.132;2023-04-27T11:47:26;98392.47;;;16.75;36.88
59106;BME280;44891;50.204;8.132;2023-04-27T11:51:29;98396.81;;;16.46;36.21
59106;BME280;44891;50.204;8.132;2023-04-27T11:55:35;98398.81;;;16.79;36.06
59106;BME280;44891;50.204;8.132;2023-04-27T11:59:39;98383.13;;;17.22;35.49
59106;BME280;44891;50.204;8.132;2023-04-27T12:03:41;98381.69;;;17.40;35.55
59106;BME280;44891;50.204;8.132;2023-04-27T12:07:43;98377.75;;;16.98;36.43
59106;BME280;44891;50.204;8.132;2023-04-27T12:11:47;98382.13;;;16.64;36.42
59106;BME280;44891;50.204;8.132;2023-04-27T12:15:48;98369.50;;;17.00;35.45
59106;BME280;44891;50.204;8.132;2023-04-27T12:19:50;98376.69;;;16.94;36.18
59106;BME280;44891;50.204;8.132;2023-04-27T12:23:52;98375.25;;;17.46;35.08
59106;BME280;44891;50.204;8.132;2023-04-27T12:27:55;98372.06;;;17.78;34.85
59106;BME280;44891;50.204;8.132;2023-04-27T12:31:57;98360.81;;;17.86;34.87
59106;BME280;44891;50.204;8.132;2023-04-27T12:35:59;98349.38;;;18.34;34.13
59106;BME280;44891;50.204;8.132;2023-04-27T12:40:01;98348.41;;;18.48;33.44
59106;BME280;44891;50.204;8.132;2023-04-27T12:44:06;98354.63;;;18.63;34.14
59106;BME280;44891;50.204;8.132;2023-04-27T12:48:08;98351.72;;;18.59;34.10
59106;BME280;44891;50.204;8.132;2023-04-27T12:52:10;98347.44;;;18.63;34.16
59106;BME280;44891;50.204;8.132;2023-04-27T12:56:12;98347.66;;;18.67;34.46
59106;BME280;44891;50.204;8.132;2023-04-27T13:00:15;98343.25;;;18.14;34.21
59106;BME280;44891;50.204;8.132;2023-04-27T13:04:17;98345.84;;;18.19;34.61
59106;BME280;44891;50.204;8.132;2023-04-27T13:08:20;98345.72;;;18.30;33.93
59106;BME280;44891;50.204;8.132;2023-04-27T13:12:22;98336.47;;;17.79;35.30
59106;BME280;44891;50.204;8.132;2023-04-27T13:16:26;98337.66;;;18.35;34.93
59106;BME280;44891;50.204;8.132;2023-04-27T13:20:27;98348.03;;;18.55;34.09
59106;BME280;44891;50.204;8.132;2023-04-27T13:24:29;98345.56;;;17.68;34.10
59106;BME280;44891;50.204;8.132;2023-04-27T13:28:31;98337.81;;;17.77;34.46
59106;BME280;44891;50.204;8.132;2023-04-27T13:32:34;98332.19;;;17.83;34.63
59106;BME280;44891;50.204;8.132;2023-04-27T13:36:36;98334.31;;;18.05;35.22
59106;BME280;44891;50.204;8.132;2023-04-27T13:40:38;98337.03;;;18.62;34.76
59106;BME280;44891;50.204;8.132;2023-04-27T13:44:40;98337.63;;;18.59;33.62
59106;BME280;44891;50.204;8.132;2023-04-27T13:48:43;98329.88;;;18.62;33.67
59106;BME280;44891;50.204;8.132;2023-04-27T13:52:45;98330.53;;;18.92;34.10
59106;BME280;44891;50.204;8.132;2023-04-27T13:56:46;98326.91;;;19.01;33.38
59106;BME280;44891;50.204;8.132;2023-04-27T14:00:48;98329.44;;;19.12;33.69
59106;BME280;44891;50.204;8.132;2023-04-27T14:04:53;98344.09;;;18.53;34.03
59106;BME280;44891;50.204;8.132;2023-04-27T14:08:55;98334.84;;;17.83;35.38
59106;BME280;44891;50.204;8.132;2023-04-27T14:12:57;98336.97;;;17.81;35.19
59106;BME280;44891;50.204;8.132;2023-04-27T14:16:59;98328.25;;;17.47;35.08
59106;BME280;44891;50.204;8.132;2023-04-27T14:21:02;98333.78;;;17.21;35.66
59106;BME280;44891;50.204;8.132;2023-04-27T14:25:05;98330.47;;;17.34;36.55
59106;BME280;44891;50.204;8.132;2023-04-27T14:29:07;98324.06;;;17.40;35.45
59106;BME280;44891;50.204;8.132;2023-04-27T14:33:08;98331.69;;;17.18;36.72
59106;BME280;44891;50.204;8.132;2023-04-27T14:37:12;98330.63;;;16.85;37.00
59106;BME280;44891;50.204;8.132;2023-04-27T14:41:13;98328.78;;;16.80;37.23
59106;BME280;44891;50.204;8.132;2023-04-27T14:45:15;98330.34;;;16.81;37.86
59106;BME280;44891;50.204;8.132;2023-04-27T14:49:18;98323.78;;;16.74;38.44
59106;BME280;44891;50.204;8.132;2023-04-27T14:53:21;98328.09;;;16.54;37.32
59106;BME280;44891;50.204;8.132;2023-04-27T14:57:24;98324.81;;;16.23;38.73
59106;BME280;44891;50.204;8.132;2023-04-27T15:01:26;98314.66;;;16.46;38.97
59106;BME280;44891;50.204;8.132;2023-04-27T15:05:28;98321.84;;;16.35;39.61
59106;BME280;44891;50.204;8.132;2023-04-27T15:09:32;98313.63;;;16.37;39.87
59106;BME280;44891;50.204;8.132;2023-04-27T15:13:34;98317.75;;;16.58;38.97
59106;BME280;44891;50.204;8.132;2023-04-27T15:17:36;98302.38;;;16.55;39.60
59106;BME280;44891;50.204;8.132;2023-04-27T15:21:38;98296.00;;;16.56;39.18
59106;BME280;44891;50.204;8.132;2023-04-27T15:25:42;98285.88;;;16.73;39.65
59106;BME280;44891;50.204;8.132;2023-04-27T15:29:44;98275.09;;;16.54;39.22
59106;BME280;44891;50.204;8.132;2023-04-27T15:33:46;98276.41;;;17.83;38.28
59106;BME280;44891;50.204;8.132;2023-04-27T15:37:48;98274.22;;;18.47;36.42
59106;BME280;44891;50.204;8.132;2023-04-27T15:41:52;98274.88;;;17.48;37.30
59106;BME280;44891;50.204;8.132;2023-04-27T15:45:55;98272.72;;;16.92;38.29
59106;BME280;44891;50.204;8.132;2023-04-27T15:49:57;98269.81;;;16.89;39.00
59106;BME280;44891;50.204;8.132;2023-04-27T15:53:59;98263.38;;;16.61;39.98
59106;BME280;44891;50.204;8.132;2023-04-27T15:58:02;98248.44;;;16.30;39.66
59106;BME280;44891;50.204;8.132;2023-04-27T16:02:05;98249.53;;;16.69;39.30
59106;BME280;44891;50.204;8.132;2023-04-27T16:06:06;98245.19;;;16.83;39.49
59106;BME280;44891;50.204;8.132;2023-04-27T16:10:08;98253.53;;;16.66;39.84
59106;BME280;44891;50.204;8.132;2023-04-27T16:14:12;98244.56;;;16.57;40.43
59106;BME280;44891;50.204;8.132;2023-04-27T16:18:14;98248.69;;;16.39;40.50
59106;BME280;44891;50.204;8.132;2023-04-27T16:22:15;98241.22;;;16.46;40.35
59106;BME280;44891;50.204;8.132;2023-04-27T16:26:17;98232.53;;;16.30;41.31
59106;BME280;44891;50.204;8.132;2023-04-27T16:30:20;98228.25;;;16.40;41.09
59106;BME280;44891;50.204;8.132;2023-04-27T16:34:23;98228.25;;;16.40;41.20
59106;BME280;44891;50.204;8.132;2023-04-27T16:38:25;98223.56;;;16.31;41.56
59106;BME280;44891;50.204;8.132;2023-04-27T16:42:27;98236.66;;;16.08;42.98
59106;BME280;44891;50.204;8.132;2023-04-27T16:46:30;98241.75;;;15.94;42.82
59106;BME280;44891;50.204;8.132;2023-04-27T16:50:32;98252.97;;;15.70;43.29
59106;BME280;44891;50.204;8.132;2023-04-27T16:54:34;98247.69;;;15.60;43.02
59106;BME280;44891;50.204;8.132;2023-04-27T16:58:35;98244.25;;;15.44;43.66
59106;BME280;44891;50.204;8.132;2023-04-27T17:02:39;98248.25;;;15.37;43.77
59106;BME280;44891;50.204;8.132;2023-04-27T17:06:41;98236.09;;;15.36;44.54
59106;BME280;44891;50.204;8.132;2023-04-27T17:10:44;98241.66;;;15.39;45.27
59106;BME280;44891;50.204;8.132;2023-04-27T17:14:46;98234.50;;;15.40;44.98
59106;BME280;44891;50.204;8.132;2023-04-27T17:18:49;98237.44;;;15.28;44.88
59106;BME280;44891;50.204;8.132;2023-04-27T17:22:51;98231.91;;;15.09;45.74
59106;BME280;44891;50.204;8.132;2023-04-27T17:26:53;98226.91;;;14.92;46.49
59106;BME280;44891;50.204;8.132;2023-04-27T17:30:55;98227.69;;;14.83;46.72
59106;BME280;44891;50.204;8.132;2023-04-27T17:34:58;98220.56;;;14.73;46.19
59106;BME280;44891;50.204;8.132;2023-04-27T17:39:00;98222.94;;;14.69;46.73
59106;BME280;44891;50.204;8.132;2023-04-27T17:43:04;98222.94;;;14.64;47.80
59106;BME280;44891;50.204;8.132;2023-04-27T17:47:05;98220.81;;;14.56;48.80
59106;BME280;44891;50.204;8.132;2023-04-27T17:51:08;98219.22;;;14.55;49.40
59106;BME280;44891;50.204;8.132;2023-04-27T17:55:10;98228.16;;;14.44;49.57
59106;BME280;44891;50.204;8.132;2023-04-27T17:59:12;98227.06;;;14.14;50.37
59106;BME280;44891;50.204;8.132;2023-04-27T18:03:14;98218.34;;;14.09;50.77
59106;BME280;44891;50.204;8.132;2023-04-27T18:07:17;98225.69;;;13.97;51.10
59106;BME280;44891;50.204;8.132;2023-04-27T18:11:19;98222.00;;;14.03;50.89
59106;BME280;44891;50.204;8.132;2023-04-27T18:15:22;98211.69;;;13.96;51.32
59106;BME280;44891;50.204;8.132;2023-04-27T18:19:23;98199.50;;;13.85;51.62
59106;BME280;44891;50.204;8.132;2023-04-27T18:23:27;98196.03;;;13.69;52.05
59106;BME280;44891;50.204;8.132;2023-04-27T18:27:28;98201.50;;;13.47;52.14
59106;BME280;44891;50.204;8.132;2023-04-27T18:31:31;98218.56;;;13.40;52.48
59106;BME280;44891;50.204;8.132;2023-04-27T18:35:33;98218.00;;;13.27;52.13
59106;BME280;44891;50.204;8.132;2023-04-27T18:39:36;98226.59;;;13.18;52.46
59106;BME280;44891;50.204;8.132;2023-04-27T18:43:38;98227.78;;;12.95;52.69
59106;BME280;44891;50.204;8.132;2023-04-27T18:47:40;98227.31;;;13.03;52.60
59106;BME280;44891;50.204;8.132;2023-04-27T18:51:41;98227.75;;;12.90;53.29
59106;BME280;44891;50.204;8.132;2023-04-27T18:55:45;98223.78;;;12.92;53.37
59106;BME280;44891;50.204;8.132;2023-04-27T18:59:46;98222.22;;;12.91;53.38
59106;BME280;44891;50.204;8.132;2023-04-27T19:03:48;98215.25;;;12.75;53.95
59106;BME280;44891;50.204;8.132;2023-04-27T19:07:50;98214.03;;;12.61;54.33
59106;BME280;44891;50.204;8.132;2023-04-27T19:11:53;98219.78;;;12.52;54.63
59106;BME280;44891;50.204;8.132;2023-04-27T19:15:55;98218.44;;;12.50;54.66
59106;BME280;44891;50.204;8.132;2023-04-27T19:19:58;98220.84;;;12.51;54.57
59106;BME280;44891;50.204;8.132;2023-04-27T19:24:00;98228.44;;;12.48;54.65
59106;BME280;44891;50.204;8.132;2023-04-27T19:28:03;98225.56;;;12.49;55.11
59106;BME280;44891;50.204;8.132;2023-04-27T19:32:05;98227.16;;;12.50;56.61
59106;BME280;44891;50.204;8.132;2023-04-27T19:36:07;98226.56;;;12.43;57.49
59106;BME280;44891;50.204;8.132;2023-04-27T19:40:09;98226.81;;;12.42;58.85
59106;BME280;44891;50.204;8.132;2023-04-27T19:44:12;98218.81;;;12.32;59.93
59106;BME280;44891;50.204;8.132;2023-04-27T19:48:14;98220.63;;;12.31;59.48
59106;BME280;44891;50.204;8.132;2023-04-27T19:52:16;98227.88;;;12.19;60.48
59106;BME280;44891;50.204;8.132;2023-04-27T19:56:18;98226.56;;;12.16;60.95
59106;BME280;44891;50.204;8.132;2023-04-27T20:00:21;98217.75;;;12.06;61.38
59106;BME280;44891;50.204;8.132;2023-04-27T20:04:23;98222.94;;;12.01;61.87
59106;BME280;44891;50.204;8.132;2023-04-27T20:08:25;98215.31;;;11.77;63.07
59106;BME280;44891;50.204;8.132;2023-04-27T20:12:27;98222.69;;;11.80;63.36
59106;BME280;44891;50.204;8.132;2023-04-27T20:16:30;98217.88;;;11.72;63.79
59106;BME280;44891;50.204;8.132;2023-04-27T20:20:32;98221.97;;;11.63;63.71
59106;BME280;44891;50.204;8.132;2023-04-27T20:24:34;98208.44;;;11.54;64.49
59106;BME280;44891;50.204;8.132;2023-04-27T20:28:36;98197.44;;;11.57;63.93
59106;BME280;44891;50.204;8.132;2023-04-27T20:32:39;98190.28;;;11.53;63.96
59106;BME280;44891;50.204;8.132;2023-04-27T20:36:41;98188.38;;;11.48;63.58
59106;BME280;44891;50.204;8.132;2023-04-27T20:40:43;98199.69;;;11.49;64.98
59106;BME280;44891;50.204;8.132;2023-04-27T20:44:45;98197.88;;;11.49;65.73
59106;BME280;44891;50.204;8.132;2023-04-27T20:48:49;98202.13;;;11.55;65.60
59106;BME280;44891;50.204;8.132;2023-04-27T20:52:51;98195.16;;;11.44;65.53
59106;BME280;44891;50.204;8.132;2023-04-27T20:56:53;98203.00;;;11.39;66.74
59106;BME280;44891;50.204;8.132;2023-04-27T21:00:54;98147.88;;;11.05;67.62
59106;BME280;44891;50.204;8.132;2023-04-27T21:04:58;98187.47;;;11.37;67.44
59106;BME280;44891;50.204;8.132;2023-04-27T21:08:59;98170.81;;;11.32;66.60
59106;BME280;44891;50.204;8.132;2023-04-27T21:13:01;98181.81;;;11.29;66.94
59106;BME280;44891;50.204;8.132;2023-04-27T21:17:03;98170.13;;;11.20;67.51
59106;BME280;44891;50.204;8.132;2023-04-27T21:21:06;98173.81;;;11.19;67.90
59106;BME280;44891;50.204;8.132;2023-04-27T21:25:08;98173.91;;;11.07;68.64
59106;BME280;44891;50.204;8.132;2023-04-27T21:29:10;98170.56;;;10.95;69.14
59106;BME280;44891;50.204;8.132;2023-04-27T21:33:12;98170.19;;;11.03;68.99